sensor_id;sensor_type;location;lat;lon;timestamp;P1;durP1;ratioP1;P2;durP2;ratioP2
19887;SDS011;10106;51.332;12.336;2023-04-29T00:01:58;689.17;;;269.70;;
19887;SDS011;10106;51.332;12.336;2023-04-29T00:04:24;684.80;;;277.40;;
19887;SDS011;10106;51.332;12.336;2023-04-29T00:06:50;660.03;;;269.70;;
19887;SDS011;10106;51.332;12.336;2023-04-29T00:09:16;694.97;;;271.47;;
19887;SDS011;10106;51.332;12.336;2023-04-29T00:11:42;684.57;;;277.33;;
19887;SDS011;10106;51.332;12.336;2023-04-29T00:14:08;686.90;;;277.10;;
19887;SDS011;10106;51.332;12.336;2023-04-29T00:16:33;655.90;;;268.53;;
19887;SDS011;10106;51.332;12.336;2023-04-29T00:18:59;693.10;;;274.97;;
19887;SDS011;10106;51.332;12.336;2023-04-29T00:21:25;686.73;;;268.67;;
19887;SDS011;10106;51.332;12.336;2023-04-29T00:23:51;689.93;;;268.03;;
19887;SDS011;10106;51.332;12.336;2023-04-29T00:26:17;567.33;;;228.43;;
19887;SDS011;10106;51.332;12.336;2023-04-29T00:28:43;682.23;;;248.53;;
19887;SDS011;10106;51.332;12.336;2023-04-29T00:31:09;685.27;;;269.77;;
19887;SDS011;10106;51.332;12.336;2023-04-29T00:33:35;686.53;;;264.80;;
19887;SDS011;10106;51.332;12.336;2023-04-29T00:36:01;687.60;;;266.23;;
19887;SDS011;10106;51.332;12.336;2023-04-29T00:38:27;681.47;;;259.30;;
19887;SDS011;10106;51.332;12.336;2023-04-29T00:40:53;681.77;;;272.83;;
19887;SDS011;10106;51.332;12.336;2023-04-29T00:43:20;681.77;;;270.10;;
19887;SDS011;10106;51.332;12.336;2023-04-29T00:45:46;681.97;;;269.37;;
19887;SDS011;10106;51.332;12.336;2023-04-29T00:48:12;682.40;;;259.27;;
19887;SDS011;10106;51.332;12.336;2023-04-29T00:50:41;681.37;;;257.00;;
19887;SDS011;10106;51.332;12.336;2023-04-29T00:53:08;686.37;;;268.93;;
19887;SDS011;10106;51.332;12.336;2023-04-29T00:55:37;677.53;;;256.33;;
19887;SDS011;10106;51.332;12.336;2023-04-29T00:58:03;674.03;;;274.10;;
19887;SDS011;10106;51.332;12.336;2023-04-29T01:00:28;671.00;;;270.43;;
19887;SDS011;10106;51.332;12.336;2023-04-29T01:03:01;669.00;;;266.43;;
19887;SDS011;10106;51.332;12.336;2023-04-29T01:05:28;677.47;;;262.30;;
19887;SDS011;10106;51.332;12.336;2023-04-29T01:11:08;698.20;;;314.17;;
19887;SDS011;10106;51.332;12.336;2023-04-29T01:13:42;692.87;;;296.57;;
19887;SDS011;10106;51.332;12.336;2023-04-29T01:16:24;702.00;;;301.17;;
19887;SDS011;10106;51.332;12.336;2023-04-29T01:22:16;690.53;;;279.23;;
19887;SDS011;10106;51.332;12.336;2023-04-29T01:24:43;679.43;;;279.50;;
19887;SDS011;10106;51.332;12.336;2023-04-29T01:27:12;687.10;;;281.87;;
19887;SDS011;10106;51.332;12.336;2023-04-29T01:29:42;685.27;;;272.27;;
19887;SDS011;10106;51.332;12.336;2023-04-29T01:32:20;672.23;;;271.33;;
19887;SDS011;10106;51.332;12.336;2023-04-29T01:35:14;695.10;;;279.70;;
19887;SDS011;10106;51.332;12.336;2023-04-29T01:41:12;689.13;;;268.93;;
19887;SDS011;10106;51.332;12.336;2023-04-29T01:43:40;671.83;;;264.00;;
19887;SDS011;10106;51.332;12.336;2023-04-29T01:46:08;669.00;;;274.03;;
19887;SDS011;10106;51.332;12.336;2023-04-29T01:48:35;675.67;;;273.63;;
19887;SDS011;10106;51.332;12.336;2023-04-29T01:51:01;678.47;;;273.53;;
19887;SDS011;10106;51.332;12.336;2023-04-29T01:53:27;677.87;;;275.30;;
19887;SDS011;10106;51.332;12.336;2023-04-29T01:55:53;685.07;;;278.63;;
19887;SDS011;10106;51.332;12.336;2023-04-29T01:58:19;689.67;;;272.63;;
19887;SDS011;10106;51.332;12.336;2023-04-29T02:00:44;674.17;;;262.97;;
19887;SDS011;10106;51.332;12.336;2023-04-29T02:03:10;595.63;;;265.10;;
19887;SDS011;10106;51.332;12.336;2023-04-29T02:05:36;559.83;;;252.20;;
19887;SDS011;10106;51.332;12.336;2023-04-29T02:08:03;363.57;;;255.83;;
19887;SDS011;10106;51.332;12.336;2023-04-29T02:10:31;276.60;;;245.40;;
19887;SDS011;10106;51.332;12.336;2023-04-29T02:12:57;485.20;;;253.10;;
19887;SDS011;10106;51.332;12.336;2023-04-29T02:15:25;514.30;;;254.03;;
19887;SDS011;10106;51.332;12.336;2023-04-29T02:17:52;484.03;;;253.30;;
19887;SDS011;10106;51.332;12.336;2023-04-29T02:20:18;472.47;;;252.63;;
19887;SDS011;10106;51.332;12.336;2023-04-29T02:22:44;483.13;;;260.00;;
19887;SDS011;10106;51.332;12.336;2023-04-29T02:25:10;416.90;;;256.37;;
19887;SDS011;10106;51.332;12.336;2023-04-29T02:27:36;265.17;;;238.70;;
19887;SDS011;10106;51.332;12.336;2023-04-29T02:30:02;270.20;;;243.40;;
19887;SDS011;10106;51.332;12.336;2023-04-29T02:32:29;272.53;;;245.07;;
19887;SDS011;10106;51.332;12.336;2023-04-29T02:34:55;677.17;;;621.40;;
19887;SDS011;10106;51.332;12.336;2023-04-29T02:37:22;430.27;;;347.80;;
19887;SDS011;10106;51.332;12.336;2023-04-29T02:39:47;420.40;;;306.37;;
19887;SDS011;10106;51.332;12.336;2023-04-29T02:42:13;310.07;;;278.17;;
19887;SDS011;10106;51.332;12.336;2023-04-29T02:44:39;270.87;;;245.70;;
19887;SDS011;10106;51.332;12.336;2023-04-29T02:47:06;252.60;;;229.90;;
19887;SDS011;10106;51.332;12.336;2023-04-29T02:49:32;309.90;;;254.33;;
19887;SDS011;10106;51.332;12.336;2023-04-29T02:51:57;350.60;;;260.97;;
19887;SDS011;10106;51.332;12.336;2023-04-29T02:54:23;305.13;;;257.80;;
19887;SDS011;10106;51.332;12.336;2023-04-29T02:56:49;345.20;;;262.70;;
19887;SDS011;10106;51.332;12.336;2023-04-29T02:59:14;266.83;;;240.70;;
19887;SDS011;10106;51.332;12.336;2023-04-29T03:01:40;316.53;;;254.43;;
19887;SDS011;10106;51.332;12.336;2023-04-29T03:04:06;231.83;;;210.87;;
19887;SDS011;10106;51.332;12.336;2023-04-29T03:06:32;298.20;;;251.23;;
19887;SDS011;10106;51.332;12.336;2023-04-29T03:08:58;269.83;;;241.70;;
19887;SDS011;10106;51.332;12.336;2023-04-29T03:11:24;242.90;;;219.57;;
19887;SDS011;10106;51.332;12.336;2023-04-29T03:13:49;283.17;;;247.00;;
19887;SDS011;10106;51.332;12.336;2023-04-29T03:16:15;263.10;;;236.17;;
19887;SDS011;10106;51.332;12.336;2023-04-29T03:18:41;262.17;;;233.90;;
19887;SDS011;10106;51.332;12.336;2023-04-29T03:21:07;17.27;;;9.00;;
19887;SDS011;10106;51.332;12.336;2023-04-29T03:23:33;22.50;;;15.07;;
19887;SDS011;10106;51.332;12.336;2023-04-29T03:25:59;25.77;;;22.93;;
19887;SDS011;10106;51.332;12.336;2023-04-29T03:28:25;21.43;;;14.53;;
19887;SDS011;10106;51.332;12.336;2023-04-29T03:30:51;20.23;;;10.40;;
19887;SDS011;10106;51.332;12.336;2023-04-29T03:33:17;15.70;;;8.70;;
19887;SDS011;10106;51.332;12.336;2023-04-29T03:35:43;24.30;;;9.90;;
19887;SDS011;10106;51.332;12.336;2023-04-29T03:38:09;18.60;;;9.10;;
19887;SDS011;10106;51.332;12.336;2023-04-29T03:40:35;23.10;;;10.30;;
19887;SDS011;10106;51.332;12.336;2023-04-29T03:43:01;22.60;;;10.20;;
19887;SDS011;10106;51.332;12.336;2023-04-29T03:45:27;15.97;;;8.50;;
19887;SDS011;10106;51.332;12.336;2023-04-29T03:47:53;16.77;;;7.87;;
19887;SDS011;10106;51.332;12.336;2023-04-29T03:50:19;23.70;;;8.10;;
19887;SDS011;10106;51.332;12.336;2023-04-29T03:52:45;16.33;;;7.57;;
19887;SDS011;10106;51.332;12.336;2023-04-29T03:55:11;20.70;;;9.80;;
19887;SDS011;10106;51.332;12.336;2023-04-29T03:57:37;20.23;;;9.10;;
19887;SDS011;10106;51.332;12.336;2023-04-29T04:00:03;17.17;;;8.47;;
19887;SDS011;10106;51.332;12.336;2023-04-29T04:02:29;15.77;;;8.13;;
19887;SDS011;10106;51.332;12.336;2023-04-29T04:04:55;19.90;;;8.30;;
19887;SDS011;10106;51.332;12.336;2023-04-29T04:07:23;17.73;;;7.97;;
19887;SDS011;10106;51.332;12.336;2023-04-29T04:09:48;23.37;;;10.83;;
19887;SDS011;10106;51.332;12.336;2023-04-29T04:12:14;23.17;;;9.87;;
19887;SDS011;10106;51.332;12.336;2023-04-29T04:14:40;17.30;;;9.50;;
19887;SDS011;10106;51.332;12.336;2023-04-29T04:17:06;22.80;;;9.30;;
19887;SDS011;10106;51.332;12.336;2023-04-29T04:19:31;17.67;;;8.00;;
19887;SDS011;10106;51.332;12.336;2023-04-29T04:21:57;20.20;;;8.50;;
19887;SDS011;10106;51.332;12.336;2023-04-29T04:24:23;15.07;;;7.80;;
19887;SDS011;10106;51.332;12.336;2023-04-29T04:26:49;19.13;;;8.00;;
19887;SDS011;10106;51.332;12.336;2023-04-29T04:29:14;19.60;;;8.80;;
19887;SDS011;10106;51.332;12.336;2023-04-29T04:31:40;16.50;;;9.97;;
19887;SDS011;10106;51.332;12.336;2023-04-29T04:34:06;12.07;;;6.37;;
19887;SDS011;10106;51.332;12.336;2023-04-29T04:36:31;25.07;;;11.90;;
19887;SDS011;10106;51.332;12.336;2023-04-29T04:38:57;21.63;;;8.67;;
19887;SDS011;10106;51.332;12.336;2023-04-29T04:41:23;17.77;;;7.70;;
19887;SDS011;10106;51.332;12.336;2023-04-29T04:43:48;25.33;;;10.10;;
19887;SDS011;10106;51.332;12.336;2023-04-29T04:46:14;19.60;;;6.60;;
19887;SDS011;10106;51.332;12.336;2023-04-29T04:48:40;17.57;;;7.33;;
19887;SDS011;10106;51.332;12.336;2023-04-29T04:51:10;16.60;;;7.30;;
19887;SDS011;10106;51.332;12.336;2023-04-29T04:53:36;15.63;;;8.33;;
19887;SDS011;10106;51.332;12.336;2023-04-29T04:56:03;24.97;;;22.40;;
19887;SDS011;10106;51.332;12.336;2023-04-29T04:58:29;26.47;;;20.50;;
19887;SDS011;10106;51.332;12.336;2023-04-29T05:06:07;10.43;;;6.40;;
19887;SDS011;10106;51.332;12.336;2023-04-29T05:08:33;14.17;;;6.43;;
19887;SDS011;10106;51.332;12.336;2023-04-29T05:10:58;18.03;;;8.17;;
19887;SDS011;10106;51.332;12.336;2023-04-29T05:13:24;12.23;;;5.97;;
19887;SDS011;10106;51.332;12.336;2023-04-29T05:15:50;11.43;;;6.23;;
19887;SDS011;10106;51.332;12.336;2023-04-29T05:18:15;13.40;;;6.67;;
19887;SDS011;10106;51.332;12.336;2023-04-29T05:20:41;8.80;;;5.60;;
19887;SDS011;10106;51.332;12.336;2023-04-29T05:23:07;10.80;;;5.63;;
19887;SDS011;10106;51.332;12.336;2023-04-29T05:25:34;7.53;;;4.93;;
19887;SDS011;10106;51.332;12.336;2023-04-29T05:28:01;13.30;;;6.10;;
19887;SDS011;10106;51.332;12.336;2023-04-29T05:30:27;14.73;;;6.40;;
19887;SDS011;10106;51.332;12.336;2023-04-29T05:32:53;12.30;;;5.77;;
19887;SDS011;10106;51.332;12.336;2023-04-29T05:35:18;13.10;;;5.33;;
19887;SDS011;10106;51.332;12.336;2023-04-29T05:37:44;11.03;;;5.83;;
19887;SDS011;10106;51.332;12.336;2023-04-29T05:40:10;15.67;;;7.37;;
19887;SDS011;10106;51.332;12.336;2023-04-29T05:42:36;13.40;;;7.43;;
19887;SDS011;10106;51.332;12.336;2023-04-29T05:45:02;12.80;;;6.97;;
19887;SDS011;10106;51.332;12.336;2023-04-29T05:47:27;13.73;;;7.07;;
19887;SDS011;10106;51.332;12.336;2023-04-29T05:49:53;13.60;;;7.40;;
19887;SDS011;10106;51.332;12.336;2023-04-29T05:52:19;15.87;;;8.33;;
19887;SDS011;10106;51.332;12.336;2023-04-29T05:54:44;20.33;;;8.37;;
19887;SDS011;10106;51.332;12.336;2023-04-29T05:57:10;16.17;;;8.10;;
19887;SDS011;10106;51.332;12.336;2023-04-29T05:59:36;15.40;;;7.50;;
19887;SDS011;10106;51.332;12.336;2023-04-29T06:02:01;14.03;;;6.90;;
19887;SDS011;10106;51.332;12.336;2023-04-29T06:04:27;14.53;;;8.03;;
19887;SDS011;10106;51.332;12.336;2023-04-29T06:06:53;11.70;;;6.67;;
19887;SDS011;10106;51.332;12.336;2023-04-29T06:09:21;14.83;;;8.00;;
19887;SDS011;10106;51.332;12.336;2023-04-29T06:11:50;12.83;;;7.40;;
19887;SDS011;10106;51.332;12.336;2023-04-29T06:14:16;13.60;;;8.10;;
19887;SDS011;10106;51.332;12.336;2023-04-29T06:16:42;17.90;;;6.80;;
19887;SDS011;10106;51.332;12.336;2023-04-29T06:19:08;11.73;;;7.27;;
19887;SDS011;10106;51.332;12.336;2023-04-29T06:21:33;14.87;;;7.23;;
19887;SDS011;10106;51.332;12.336;2023-04-29T06:23:59;14.57;;;6.80;;
19887;SDS011;10106;51.332;12.336;2023-04-29T06:26:25;12.77;;;7.00;;
19887;SDS011;10106;51.332;12.336;2023-04-29T06:28:51;17.67;;;7.77;;
19887;SDS011;10106;51.332;12.336;2023-04-29T06:31:18;12.23;;;6.57;;
19887;SDS011;10106;51.332;12.336;2023-04-29T06:33:43;12.63;;;6.90;;
19887;SDS011;10106;51.332;12.336;2023-04-29T06:36:10;13.50;;;6.93;;
19887;SDS011;10106;51.332;12.336;2023-04-29T06:38:36;12.57;;;6.53;;
19887;SDS011;10106;51.332;12.336;2023-04-29T06:41:01;14.53;;;6.07;;
19887;SDS011;10106;51.332;12.336;2023-04-29T06:43:28;12.00;;;6.03;;
19887;SDS011;10106;51.332;12.336;2023-04-29T06:45:54;9.87;;;5.30;;
19887;SDS011;10106;51.332;12.336;2023-04-29T06:48:20;12.70;;;6.67;;
19887;SDS011;10106;51.332;12.336;2023-04-29T06:53:19;9.83;;;5.47;;
19887;SDS011;10106;51.332;12.336;2023-04-29T06:55:45;9.60;;;5.60;;
19887;SDS011;10106;51.332;12.336;2023-04-29T06:58:14;11.67;;;5.43;;
19887;SDS011;10106;51.332;12.336;2023-04-29T07:00:44;8.70;;;5.50;;
19887;SDS011;10106;51.332;12.336;2023-04-29T07:03:11;9.13;;;5.20;;
19887;SDS011;10106;51.332;12.336;2023-04-29T07:05:37;6.93;;;4.73;;
19887;SDS011;10106;51.332;12.336;2023-04-29T07:08:04;8.17;;;4.47;;
19887;SDS011;10106;51.332;12.336;2023-04-29T07:10:31;10.80;;;4.97;;
19887;SDS011;10106;51.332;12.336;2023-04-29T07:12:56;9.20;;;5.03;;
19887;SDS011;10106;51.332;12.336;2023-04-29T07:15:23;8.87;;;4.80;;
19887;SDS011;10106;51.332;12.336;2023-04-29T07:17:49;11.30;;;6.37;;
19887;SDS011;10106;51.332;12.336;2023-04-29T07:20:15;12.40;;;4.63;;
19887;SDS011;10106;51.332;12.336;2023-04-29T07:22:40;7.47;;;4.60;;
19887;SDS011;10106;51.332;12.336;2023-04-29T07:25:06;11.60;;;5.47;;
19887;SDS011;10106;51.332;12.336;2023-04-29T07:27:33;8.03;;;4.90;;
19887;SDS011;10106;51.332;12.336;2023-04-29T07:29:59;6.40;;;4.03;;
19887;SDS011;10106;51.332;12.336;2023-04-29T07:32:25;9.43;;;3.60;;
19887;SDS011;10106;51.332;12.336;2023-04-29T07:34:51;9.60;;;4.80;;
19887;SDS011;10106;51.332;12.336;2023-04-29T07:37:17;9.27;;;5.20;;
19887;SDS011;10106;51.332;12.336;2023-04-29T07:39:43;13.90;;;6.03;;
19887;SDS011;10106;51.332;12.336;2023-04-29T07:42:09;13.67;;;4.43;;
19887;SDS011;10106;51.332;12.336;2023-04-29T07:44:35;9.10;;;5.13;;
19887;SDS011;10106;51.332;12.336;2023-04-29T07:47:01;8.40;;;3.80;;
19887;SDS011;10106;51.332;12.336;2023-04-29T07:49:27;10.27;;;4.37;;
19887;SDS011;10106;51.332;12.336;2023-04-29T07:51:52;8.40;;;4.93;;
19887;SDS011;10106;51.332;12.336;2023-04-29T07:54:18;8.10;;;4.27;;
19887;SDS011;10106;51.332;12.336;2023-04-29T07:56:47;8.70;;;4.60;;
19887;SDS011;10106;51.332;12.336;2023-04-29T07:59:12;15.30;;;6.30;;
19887;SDS011;10106;51.332;12.336;2023-04-29T08:01:41;17.30;;;7.17;;
19887;SDS011;10106;51.332;12.336;2023-04-29T08:04:07;14.97;;;7.40;;
19887;SDS011;10106;51.332;12.336;2023-04-29T08:06:33;13.13;;;6.87;;
19887;SDS011;10106;51.332;12.336;2023-04-29T08:08:59;14.20;;;5.97;;
19887;SDS011;10106;51.332;12.336;2023-04-29T08:11:25;10.37;;;6.20;;
19887;SDS011;10106;51.332;12.336;2023-04-29T08:13:52;12.83;;;6.17;;
19887;SDS011;10106;51.332;12.336;2023-04-29T08:16:17;15.90;;;7.20;;
19887;SDS011;10106;51.332;12.336;2023-04-29T08:18:43;14.10;;;7.17;;
19887;SDS011;10106;51.332;12.336;2023-04-29T08:21:09;11.87;;;6.33;;
19887;SDS011;10106;51.332;12.336;2023-04-29T08:23:38;11.77;;;7.33;;
19887;SDS011;10106;51.332;12.336;2023-04-29T08:26:04;12.07;;;7.07;;
19887;SDS011;10106;51.332;12.336;2023-04-29T08:28:30;12.20;;;7.20;;
19887;SDS011;10106;51.332;12.336;2023-04-29T08:30:56;11.57;;;6.70;;
19887;SDS011;10106;51.332;12.336;2023-04-29T08:33:21;9.67;;;5.83;;
19887;SDS011;10106;51.332;12.336;2023-04-29T08:35:48;12.50;;;6.57;;
19887;SDS011;10106;51.332;12.336;2023-04-29T08:38:14;13.63;;;7.40;;
19887;SDS011;10106;51.332;12.336;2023-04-29T08:40:44;12.40;;;6.70;;
19887;SDS011;10106;51.332;12.336;2023-04-29T08:43:11;12.40;;;7.63;;
19887;SDS011;10106;51.332;12.336;2023-04-29T08:45:38;13.63;;;7.43;;
19887;SDS011;10106;51.332;12.336;2023-04-29T08:48:06;12.63;;;7.17;;
19887;SDS011;10106;51.332;12.336;2023-04-29T08:50:35;11.90;;;6.40;;
19887;SDS011;10106;51.332;12.336;2023-04-29T08:53:06;9.30;;;5.93;;
19887;SDS011;10106;51.332;12.336;2023-04-29T08:55:38;8.60;;;5.20;;
19887;SDS011;10106;51.332;12.336;2023-04-29T08:58:09;7.70;;;5.40;;
19887;SDS011;10106;51.332;12.336;2023-04-29T09:00:35;8.67;;;5.50;;
19887;SDS011;10106;51.332;12.336;2023-04-29T09:06:01;7.30;;;4.17;;
19887;SDS011;10106;51.332;12.336;2023-04-29T09:08:29;8.13;;;4.87;;
19887;SDS011;10106;51.332;12.336;2023-04-29T09:10:56;9.67;;;4.97;;
19887;SDS011;10106;51.332;12.336;2023-04-29T09:13:28;6.93;;;4.30;;
19887;SDS011;10106;51.332;12.336;2023-04-29T09:15:55;7.73;;;5.10;;
19887;SDS011;10106;51.332;12.336;2023-04-29T09:23:41;8.83;;;5.07;;
19887;SDS011;10106;51.332;12.336;2023-04-29T09:26:10;8.13;;;5.37;;
19887;SDS011;10106;51.332;12.336;2023-04-29T09:28:35;10.40;;;5.47;;
19887;SDS011;10106;51.332;12.336;2023-04-29T09:31:03;8.07;;;4.97;;
19887;SDS011;10106;51.332;12.336;2023-04-29T09:33:30;12.67;;;5.77;;
19887;SDS011;10106;51.332;12.336;2023-04-29T09:35:56;8.97;;;4.93;;
19887;SDS011;10106;51.332;12.336;2023-04-29T09:38:22;9.80;;;5.80;;
19887;SDS011;10106;51.332;12.336;2023-04-29T09:40:48;9.37;;;5.57;;
19887;SDS011;10106;51.332;12.336;2023-04-29T09:43:15;9.53;;;4.40;;
19887;SDS011;10106;51.332;12.336;2023-04-29T09:45:45;9.40;;;5.83;;
19887;SDS011;10106;51.332;12.336;2023-04-29T09:48:12;10.73;;;6.00;;
19887;SDS011;10106;51.332;12.336;2023-04-29T09:50:40;8.83;;;4.73;;
19887;SDS011;10106;51.332;12.336;2023-04-29T09:53:09;6.83;;;4.73;;
19887;SDS011;10106;51.332;12.336;2023-04-29T09:55:56;10.13;;;4.90;;
19887;SDS011;10106;51.332;12.336;2023-04-29T09:58:28;8.50;;;4.63;;
19887;SDS011;10106;51.332;12.336;2023-04-29T10:00:58;10.03;;;4.80;;
19887;SDS011;10106;51.332;12.336;2023-04-29T10:03:36;16.97;;;6.63;;
19887;SDS011;10106;51.332;12.336;2023-04-29T10:06:03;8.40;;;4.90;;
19887;SDS011;10106;51.332;12.336;2023-04-29T10:08:31;8.00;;;5.00;;
19887;SDS011;10106;51.332;12.336;2023-04-29T10:11:01;9.00;;;5.13;;
19887;SDS011;10106;51.332;12.336;2023-04-29T10:13:30;10.40;;;5.47;;
19887;SDS011;10106;51.332;12.336;2023-04-29T10:16:45;8.97;;;4.80;;
19887;SDS011;10106;51.332;12.336;2023-04-29T10:18:55;8.07;;;4.70;;
19887;SDS011;10106;51.332;12.336;2023-04-29T10:21:28;8.27;;;5.40;;
19887;SDS011;10106;51.332;12.336;2023-04-29T10:23:58;7.03;;;4.80;;
19887;SDS011;10106;51.332;12.336;2023-04-29T10:26:27;8.77;;;4.47;;
19887;SDS011;10106;51.332;12.336;2023-04-29T10:28:59;7.77;;;5.33;;
19887;SDS011;10106;51.332;12.336;2023-04-29T10:31:26;7.53;;;5.00;;
19887;SDS011;10106;51.332;12.336;2023-04-29T10:33:54;6.40;;;3.50;;
19887;SDS011;10106;51.332;12.336;2023-04-29T10:36:21;7.67;;;4.90;;
19887;SDS011;10106;51.332;12.336;2023-04-29T10:38:50;6.70;;;5.10;;
19887;SDS011;10106;51.332;12.336;2023-04-29T10:41:26;6.47;;;3.90;;
19887;SDS011;10106;51.332;12.336;2023-04-29T10:43:55;6.20;;;4.70;;
19887;SDS011;10106;51.332;12.336;2023-04-29T10:46:24;9.73;;;5.20;;
19887;SDS011;10106;51.332;12.336;2023-04-29T10:48:55;8.23;;;6.60;;
19887;SDS011;10106;51.332;12.336;2023-04-29T10:51:32;6.63;;;4.13;;
19887;SDS011;10106;51.332;12.336;2023-04-29T10:54:09;5.30;;;4.40;;
19887;SDS011;10106;51.332;12.336;2023-04-29T10:56:47;6.37;;;4.67;;
19887;SDS011;10106;51.332;12.336;2023-04-29T11:01:52;8.30;;;5.20;;
19887;SDS011;10106;51.332;12.336;2023-04-29T11:04:19;6.43;;;4.20;;
19887;SDS011;10106;51.332;12.336;2023-04-29T11:06:47;6.87;;;5.00;;
19887;SDS011;10106;51.332;12.336;2023-04-29T11:14:27;8.67;;;5.10;;
19887;SDS011;10106;51.332;12.336;2023-04-29T11:16:57;10.53;;;5.90;;
19887;SDS011;10106;51.332;12.336;2023-04-29T11:19:33;9.60;;;5.57;;
19887;SDS011;10106;51.332;12.336;2023-04-29T11:22:11;9.70;;;5.60;;
19887;SDS011;10106;51.332;12.336;2023-04-29T11:27:25;9.83;;;6.30;;
19887;SDS011;10106;51.332;12.336;2023-04-29T11:29:58;10.67;;;7.03;;
19887;SDS011;10106;51.332;12.336;2023-04-29T11:32:26;11.90;;;7.10;;
19887;SDS011;10106;51.332;12.336;2023-04-29T11:34:53;14.13;;;7.33;;
19887;SDS011;10106;51.332;12.336;2023-04-29T11:37:20;10.97;;;7.50;;
19887;SDS011;10106;51.332;12.336;2023-04-29T11:39:51;12.97;;;7.90;;
19887;SDS011;10106;51.332;12.336;2023-04-29T11:42:25;11.80;;;7.00;;
19887;SDS011;10106;51.332;12.336;2023-04-29T11:44:55;11.77;;;6.57;;
19887;SDS011;10106;51.332;12.336;2023-04-29T11:47:27;8.00;;;4.17;;
19887;SDS011;10106;51.332;12.336;2023-04-29T11:50:07;18.13;;;6.50;;
19887;SDS011;10106;51.332;12.336;2023-04-29T11:52:34;10.67;;;6.60;;
19887;SDS011;10106;51.332;12.336;2023-04-29T11:55:02;11.90;;;7.47;;
19887;SDS011;10106;51.332;12.336;2023-04-29T11:57:28;13.53;;;7.10;;
19887;SDS011;10106;51.332;12.336;2023-04-29T11:59:56;12.20;;;6.50;;
19887;SDS011;10106;51.332;12.336;2023-04-29T12:02:22;21.23;;;7.50;;
19887;SDS011;10106;51.332;12.336;2023-04-29T12:04:54;14.00;;;8.30;;
19887;SDS011;10106;51.332;12.336;2023-04-29T12:07:21;14.90;;;7.80;;
19887;SDS011;10106;51.332;12.336;2023-04-29T12:09:47;13.80;;;7.70;;
19887;SDS011;10106;51.332;12.336;2023-04-29T12:12:13;9.73;;;7.20;;
19887;SDS011;10106;51.332;12.336;2023-04-29T12:14:40;14.27;;;7.30;;
19887;SDS011;10106;51.332;12.336;2023-04-29T12:17:06;15.60;;;8.93;;
19887;SDS011;10106;51.332;12.336;2023-04-29T12:19:33;11.67;;;7.40;;
19887;SDS011;10106;51.332;12.336;2023-04-29T12:22:02;14.70;;;7.13;;
19887;SDS011;10106;51.332;12.336;2023-04-29T12:24:33;15.07;;;7.57;;
19887;SDS011;10106;51.332;12.336;2023-04-29T12:27:03;12.73;;;7.60;;
19887;SDS011;10106;51.332;12.336;2023-04-29T12:29:34;10.90;;;7.23;;
19887;SDS011;10106;51.332;12.336;2023-04-29T12:32:05;13.00;;;8.00;;
19887;SDS011;10106;51.332;12.336;2023-04-29T12:34:32;11.10;;;7.90;;
19887;SDS011;10106;51.332;12.336;2023-04-29T12:36:58;9.70;;;6.20;;
19887;SDS011;10106;51.332;12.336;2023-04-29T12:39:24;14.17;;;6.50;;
19887;SDS011;10106;51.332;12.336;2023-04-29T12:41:53;15.80;;;8.80;;
19887;SDS011;10106;51.332;12.336;2023-04-29T12:44:23;13.50;;;7.40;;
19887;SDS011;10106;51.332;12.336;2023-04-29T12:46:49;12.07;;;7.10;;
19887;SDS011;10106;51.332;12.336;2023-04-29T12:49:19;10.93;;;6.50;;
19887;SDS011;10106;51.332;12.336;2023-04-29T12:51:48;10.97;;;7.27;;
19887;SDS011;10106;51.332;12.336;2023-04-29T12:54:13;10.93;;;6.83;;
19887;SDS011;10106;51.332;12.336;2023-04-29T12:56:39;8.37;;;6.30;;
19887;SDS011;10106;51.332;12.336;2023-04-29T12:59:08;6.90;;;5.10;;
19887;SDS011;10106;51.332;12.336;2023-04-29T13:01:36;8.40;;;5.90;;
19887;SDS011;10106;51.332;12.336;2023-04-29T13:04:02;10.20;;;6.60;;
19887;SDS011;10106;51.332;12.336;2023-04-29T13:06:30;11.07;;;5.97;;
19887;SDS011;10106;51.332;12.336;2023-04-29T13:08:56;16.07;;;7.30;;
19887;SDS011;10106;51.332;12.336;2023-04-29T13:11:22;8.57;;;6.13;;
19887;SDS011;10106;51.332;12.336;2023-04-29T13:13:48;7.43;;;5.70;;
19887;SDS011;10106;51.332;12.336;2023-04-29T13:16:13;10.63;;;7.10;;
19887;SDS011;10106;51.332;12.336;2023-04-29T13:18:39;7.47;;;5.90;;
19887;SDS011;10106;51.332;12.336;2023-04-29T13:21:05;9.80;;;6.20;;
19887;SDS011;10106;51.332;12.336;2023-04-29T13:23:31;8.70;;;6.17;;
19887;SDS011;10106;51.332;12.336;2023-04-29T13:25:57;10.47;;;6.97;;
19887;SDS011;10106;51.332;12.336;2023-04-29T13:28:22;10.40;;;6.83;;
19887;SDS011;10106;51.332;12.336;2023-04-29T13:30:53;10.90;;;6.67;;
19887;SDS011;10106;51.332;12.336;2023-04-29T13:33:19;8.60;;;5.93;;
19887;SDS011;10106;51.332;12.336;2023-04-29T13:35:45;16.57;;;6.67;;
19887;SDS011;10106;51.332;12.336;2023-04-29T13:38:12;9.40;;;5.67;;
19887;SDS011;10106;51.332;12.336;2023-04-29T13:40:37;8.23;;;6.13;;
19887;SDS011;10106;51.332;12.336;2023-04-29T13:43:03;12.00;;;7.07;;
19887;SDS011;10106;51.332;12.336;2023-04-29T13:45:31;8.80;;;5.23;;
19887;SDS011;10106;51.332;12.336;2023-04-29T13:47:57;9.10;;;6.03;;
19887;SDS011;10106;51.332;12.336;2023-04-29T13:50:23;11.77;;;5.53;;
19887;SDS011;10106;51.332;12.336;2023-04-29T13:52:49;9.23;;;6.47;;
19887;SDS011;10106;51.332;12.336;2023-04-29T13:55:14;10.50;;;6.20;;
19887;SDS011;10106;51.332;12.336;2023-04-29T13:57:40;9.80;;;6.73;;
19887;SDS011;10106;51.332;12.336;2023-04-29T14:00:06;12.80;;;7.60;;
19887;SDS011;10106;51.332;12.336;2023-04-29T14:02:33;9.17;;;6.30;;
19887;SDS011;10106;51.332;12.336;2023-04-29T14:04:59;11.47;;;7.87;;
19887;SDS011;10106;51.332;12.336;2023-04-29T14:07:24;11.07;;;6.97;;
19887;SDS011;10106;51.332;12.336;2023-04-29T14:09:50;11.07;;;6.70;;
19887;SDS011;10106;51.332;12.336;2023-04-29T14:12:16;7.97;;;4.63;;
19887;SDS011;10106;51.332;12.336;2023-04-29T14:14:41;14.83;;;6.37;;
19887;SDS011;10106;51.332;12.336;2023-04-29T14:17:07;12.07;;;5.70;;
19887;SDS011;10106;51.332;12.336;2023-04-29T14:19:33;14.60;;;7.27;;
19887;SDS011;10106;51.332;12.336;2023-04-29T14:21:59;8.03;;;5.17;;
19887;SDS011;10106;51.332;12.336;2023-04-29T14:24:24;10.50;;;6.13;;
19887;SDS011;10106;51.332;12.336;2023-04-29T14:26:50;6.40;;;5.17;;
19887;SDS011;10106;51.332;12.336;2023-04-29T14:29:17;10.70;;;5.70;;
19887;SDS011;10106;51.332;12.336;2023-04-29T14:31:43;10.03;;;5.57;;
19887;SDS011;10106;51.332;12.336;2023-04-29T14:34:09;10.47;;;5.53;;
19887;SDS011;10106;51.332;12.336;2023-04-29T14:36:34;9.33;;;6.00;;
19887;SDS011;10106;51.332;12.336;2023-04-29T14:39:00;11.07;;;6.07;;
19887;SDS011;10106;51.332;12.336;2023-04-29T14:41:27;9.37;;;5.63;;
19887;SDS011;10106;51.332;12.336;2023-04-29T14:43:53;6.17;;;4.60;;
19887;SDS011;10106;51.332;12.336;2023-04-29T14:46:19;10.67;;;6.10;;
19887;SDS011;10106;51.332;12.336;2023-04-29T14:48:46;8.93;;;4.90;;
19887;SDS011;10106;51.332;12.336;2023-04-29T14:51:12;9.53;;;4.80;;
19887;SDS011;10106;51.332;12.336;2023-04-29T14:53:38;6.00;;;5.20;;